Time;durP1;ratioP1;P1;durP2;ratioP2;P2;SDS_P1;SDS_P2;PMS_P1;PMS_P2;Temp;Humidity;BMP_temperature;BMP_pressure;BME280_temperature;BME280_humidity;BME280_pressure;Samples;Min_cycle;Max_cycle;Signal;HPM_P1;HPM_P2
2022/04/05 00:00:05;;;;;;;10.88;3.33;;;7.00;99.90;;;;;;5068289;28;20455;-74
2022/04/05 00:02:30;;;;;;;14.93;4.90;;;7.00;99.90;;;;;;5068032;28;20497;-74
2022/04/05 00:04:56;;;;;;;14.23;4.75;;;7.00;99.90;;;;;;5068017;28;20059;-74
2022/04/05 00:07:22;;;;;;;10.30;3.58;;;7.00;99.90;;;;;;5068668;28;20103;-74
2022/04/05 00:09:47;;;;;;;11.82;3.20;;;7.00;99.90;;;;;;5067997;28;20052;-74
2022/04/05 00:12:13;;;;;;;17.15;4.97;;;7.00;99.90;;;;;;5067297;28;20068;-74
2022/04/05 00:14:39;;;;;;;8.82;3.50;;;7.00;99.90;;;;;;5081886;28;20101;-74
2022/04/05 00:17:04;;;;;;;11.48;4.53;;;7.00;99.90;;;;;;5088760;28;20138;-73
2022/04/05 00:19:31;;;;;;;11.45;3.90;;;6.90;99.90;;;;;;5087541;28;20091;-73
2022/04/05 00:21:57;;;;;;;11.23;4.22;;;6.90;99.90;;;;;;5078995;28;20049;-74
2022/04/05 00:24:22;;;;;;;13.82;4.55;;;6.90;99.90;;;;;;5067908;28;20055;-74
2022/04/05 00:26:48;;;;;;;10.57;4.85;;;6.90;99.90;;;;;;5067030;28;20048;-74
2022/04/05 00:29:14;;;;;;;8.80;2.78;;;6.90;99.90;;;;;;5050900;28;20048;-74
2022/04/05 00:31:41;;;;;;;9.07;4.00;;;6.90;99.90;;;;;;5068410;28;20048;-74
2022/04/05 00:34:06;;;;;;;14.27;4.28;;;6.90;99.90;;;;;;5071247;28;20433;-73
2022/04/05 00:36:32;;;;;;;10.63;3.88;;;6.90;99.90;;;;;;5067142;28;20106;-74
2022/04/05 00:38:58;;;;;;;8.45;3.97;;;6.90;99.90;;;;;;5060491;28;20450;-74
2022/04/05 00:41:23;;;;;;;12.93;4.38;;;6.80;99.90;;;;;;5062707;28;20397;-74
2022/04/05 00:43:49;;;;;;;6.55;3.45;;;6.80;99.90;;;;;;5063456;28;20481;-74
2022/04/05 00:46:15;;;;;;;9.15;3.47;;;6.80;99.90;;;;;;5047260;28;20537;-73
2022/04/05 00:48:51;;;;;;;13.75;3.92;;;6.80;99.90;;;;;;5050104;28;20044;-73
2022/04/05 00:51:18;;;;;;;9.25;3.17;;;6.80;99.90;;;;;;5046897;28;20096;-74
2022/04/05 00:53:47;;;;;;;10.43;3.67;;;6.80;99.90;;;;;;5047314;28;20840;-74
2022/04/05 00:56:17;;;;;;;9.90;3.40;;;6.80;99.90;;;;;;5055551;28;20048;-74
2022/04/05 00:58:47;;;;;;;16.20;3.80;;;6.70;99.90;;;;;;5066466;28;20044;-73
2022/04/05 01:01:18;;;;;;;7.78;2.90;;;6.80;99.90;;;;;;5066966;28;20045;-74
2022/04/05 01:03:51;;;;;;;12.27;2.90;;;6.80;99.90;;;;;;5066479;28;20124;-74
2022/04/05 01:06:19;;;;;;;18.13;4.07;;;6.70;99.90;;;;;;5046849;28;20048;-73
2022/04/05 01:08:48;;;;;;;15.95;3.35;;;6.70;99.90;;;;;;5049031;28;20040;-74
2022/04/05 01:11:14;;;;;;;10.10;4.15;;;6.70;99.90;;;;;;5047600;28;20051;-74
2022/04/05 01:13:41;;;;;;;8.43;3.08;;;6.70;99.90;;;;;;5053121;28;20037;-74
2022/04/05 01:16:07;;;;;;;7.00;3.10;;;6.70;99.90;;;;;;5066213;28;20052;-73
2022/04/05 01:18:34;;;;;;;15.43;2.97;;;6.70;99.90;;;;;;5066553;28;20044;-74
2022/04/05 01:21:00;;;;;;;12.55;3.65;;;6.70;99.90;;;;;;5066247;28;20053;-74
2022/04/05 01:23:26;;;;;;;13.27;2.95;;;6.70;99.90;;;;;;5058506;28;20612;-74
2022/04/05 01:25:52;;;;;;;7.45;2.65;;;6.70;99.90;;;;;;5046688;28;20048;-74
2022/04/05 01:28:21;;;;;;;6.05;3.15;;;6.70;99.90;;;;;;5060932;28;20044;-73
2022/04/05 01:30:47;;;;;;;11.48;3.38;;;6.60;99.90;;;;;;5045828;28;20052;-74
2022/04/05 01:33:13;;;;;;;10.70;2.95;;;6.60;99.90;;;;;;5046985;28;20049;-74
2022/04/05 01:35:40;;;;;;;13.82;3.50;;;6.60;99.90;;;;;;5046344;28;20045;-73
2022/04/05 01:38:10;;;;;;;13.88;3.42;;;6.60;99.90;;;;;;5059099;28;20455;-74
2022/04/05 01:40:36;;;;;;;5.70;2.55;;;6.60;99.90;;;;;;5066910;28;20040;-73
2022/04/05 01:43:02;;;;;;;16.17;3.30;;;6.60;99.90;;;;;;5067084;28;20052;-74
2022/04/05 01:45:28;;;;;;;9.25;2.75;;;6.60;99.90;;;;;;5048761;28;20120;-74
2022/04/05 01:47:54;;;;;;;10.88;3.70;;;6.60;99.90;;;;;;5046945;28;20139;-74
2022/04/05 01:50:19;;;;;;;11.40;2.67;;;6.60;99.90;;;;;;5046667;28;20609;-74
2022/04/05 01:52:45;;;;;;;9.55;3.53;;;6.60;99.90;;;;;;5058733;28;20051;-73
2022/04/05 01:55:11;;;;;;;11.32;3.65;;;6.60;99.90;;;;;;5066953;28;20063;-74
2022/04/05 01:57:37;;;;;;;18.35;3.22;;;6.60;99.90;;;;;;5068142;28;20052;-74
2022/04/05 02:00:14;;;;;;;10.18;3.45;;;6.60;99.90;;;;;;5066731;28;20055;-74
2022/04/05 02:02:43;;;;;;;13.15;2.65;;;6.60;99.90;;;;;;5068099;28;20069;-74
2022/04/05 02:05:10;;;;;;;9.63;2.83;;;6.60;99.90;;;;;;5049675;28;20041;-74
2022/04/05 02:07:37;;;;;;;8.43;2.65;;;6.50;99.90;;;;;;5065806;28;20064;-74
2022/04/05 02:10:03;;;;;;;5.40;2.38;;;6.50;99.90;;;;;;5066325;28;20056;-74
2022/04/05 02:12:29;;;;;;;7.63;2.30;;;6.50;99.90;;;;;;5066797;28;20050;-74
2022/04/05 02:14:55;;;;;;;9.60;3.28;;;6.50;99.90;;;;;;5070254;28;20408;-74
2022/04/05 02:17:21;;;;;;;7.13;2.88;;;6.50;99.90;;;;;;5066206;28;20056;-74
2022/04/05 02:19:46;;;;;;;13.32;3.28;;;6.50;99.90;;;;;;5066481;28;20059;-74
2022/04/05 02:22:12;;;;;;;10.00;3.00;;;6.60;99.90;;;;;;5064864;28;20076;-74
2022/04/05 02:24:38;;;;;;;8.60;2.53;;;6.60;99.90;;;;;;5051794;28;20045;-74
2022/04/05 02:27:03;;;;;;;7.63;3.10;;;6.50;99.90;;;;;;5047654;28;20041;-74
2022/04/05 02:29:29;;;;;;;8.52;2.88;;;6.50;99.90;;;;;;5055431;28;20052;-74
2022/04/05 02:31:55;;;;;;;8.68;2.58;;;6.50;99.90;;;;;;5069313;28;20626;-74
2022/04/05 02:34:21;;;;;;;11.77;2.40;;;6.50;99.90;;;;;;5071232;28;20048;-74
2022/04/05 02:36:46;;;;;;;14.35;3.88;;;6.50;99.90;;;;;;5068824;28;20063;-74
2022/04/05 02:39:13;;;;;;;9.02;3.17;;;6.50;99.90;;;;;;5071437;28;20178;-74
2022/04/05 02:41:38;;;;;;;8.93;2.83;;;6.50;99.90;;;;;;5069033;28;20079;-74
2022/04/05 02:44:06;;;;;;;15.50;3.55;;;6.50;99.90;;;;;;5071076;28;20075;-74
2022/04/05 02:46:32;;;;;;;17.77;4.13;;;6.50;99.90;;;;;;5071078;28;20158;-74
2022/04/05 02:48:58;;;;;;;11.27;3.75;;;6.50;99.90;;;;;;5070879;28;20071;-74
2022/04/05 02:51:26;;;;;;;10.52;3.38;;;6.50;99.90;;;;;;5070367;28;20498;-74
2022/04/05 02:53:51;;;;;;;14.85;3.38;;;6.50;99.90;;;;;;5072830;28;20064;-74
2022/04/05 02:56:17;;;;;;;7.55;3.42;;;6.50;99.90;;;;;;5068139;28;20079;-74
2022/04/05 02:58:43;;;;;;;21.35;4.82;;;6.50;99.90;;;;;;5069933;28;20041;-74
2022/04/05 03:01:09;;;;;;;14.05;4.55;;;6.50;99.90;;;;;;5066837;28;20084;-74
2022/04/05 03:03:35;;;;;;;15.40;4.15;;;6.60;99.90;;;;;;5055584;28;20816;-74
2022/04/05 03:06:01;;;;;;;17.02;4.47;;;6.60;99.90;;;;;;5070016;28;20127;-74
2022/04/05 03:08:27;;;;;;;15.63;3.85;;;6.60;99.90;;;;;;5068913;28;20159;-74
2022/04/05 03:10:53;;;;;;;17.02;5.18;;;6.60;99.90;;;;;;5068672;28;20123;-73
2022/04/05 03:13:19;;;;;;;11.68;4.00;;;6.60;99.90;;;;;;5070598;28;20135;-74
2022/04/05 03:15:45;;;;;;;16.45;5.38;;;6.60;99.90;;;;;;5069403;28;20049;-74
2022/04/05 03:18:11;;;;;;;12.68;4.90;;;6.60;99.90;;;;;;5068105;28;20528;-74
2022/04/05 03:20:37;;;;;;;8.98;4.45;;;6.60;99.90;;;;;;5068669;28;20072;-74
2022/04/05 03:23:04;;;;;;;23.88;4.88;;;6.60;99.90;;;;;;5068991;28;20127;-74
2022/04/05 03:25:30;;;;;;;17.10;5.50;;;6.60;99.90;;;;;;5068957;28;20056;-74
2022/04/05 03:28:01;;;;;;;11.05;5.60;;;6.60;99.90;;;;;;5069392;28;20079;-74
2022/04/05 03:30:28;;;;;;;16.40;5.53;;;6.60;99.90;;;;;;5065368;28;20053;-74
2022/04/05 03:32:54;;;;;;;13.55;6.25;;;6.60;99.90;;;;;;5067575;28;20044;-74
2022/04/05 03:35:20;;;;;;;12.20;5.85;;;6.60;99.90;;;;;;5068993;28;20045;-74
2022/04/05 03:37:45;;;;;;;20.60;6.75;;;6.60;99.90;;;;;;5068906;28;20048;-74
2022/04/05 03:40:12;;;;;;;11.93;5.55;;;6.60;99.90;;;;;;5067449;28;20493;-74
2022/04/05 03:42:38;;;;;;;14.35;5.85;;;6.60;99.90;;;;;;5067936;28;20048;-74
2022/04/05 03:45:04;;;;;;;13.20;5.63;;;6.60;99.90;;;;;;5054540;28;20049;-74
2022/04/05 03:47:31;;;;;;;14.10;6.75;;;6.60;99.90;;;;;;5048356;28;20143;-74
2022/04/05 03:49:57;;;;;;;15.07;5.68;;;6.60;99.90;;;;;;5067384;28;20056;-74
2022/04/05 03:52:22;;;;;;;19.17;6.35;;;6.60;99.90;;;;;;5068340;28;20060;-74
2022/04/05 03:54:48;;;;;;;20.02;7.63;;;6.60;99.90;;;;;;5051650;28;20063;-74
2022/04/05 03:57:14;;;;;;;21.27;6.97;;;6.60;99.90;;;;;;5067596;28;20059;-74
2022/04/05 03:59:39;;;;;;;19.77;7.90;;;6.60;99.90;;;;;;5068763;28;20057;-74
2022/04/05 04:02:05;;;;;;;20.63;7.63;;;6.60;99.90;;;;;;5066435;28;20059;-74
2022/04/05 04:04:31;;;;;;;18.17;7.45;;;6.60;99.90;;;;;;5067383;28;20502;-74
2022/04/05 04:06:57;;;;;;;19.67;6.60;;;6.60;99.90;;;;;;5067732;28;20052;-74
2022/04/05 04:09:23;;;;;;;22.60;6.45;;;6.60;99.90;;;;;;5068460;28;20048;-74
2022/04/05 04:11:49;;;;;;;17.13;5.97;;;6.60;99.90;;;;;;5052540;28;20057;-74
2022/04/05 04:14:16;;;;;;;21.67;6.82;;;6.60;99.90;;;;;;5069345;28;20611;-74
2022/04/05 04:16:42;;;;;;;20.42;5.75;;;6.60;99.90;;;;;;5075904;28;20516;-74
2022/04/05 04:19:08;;;;;;;14.82;5.60;;;6.60;99.90;;;;;;5066130;28;20052;-74
2022/04/05 04:21:34;;;;;;;22.48;6.05;;;6.50;99.90;;;;;;5067575;28;20047;-74
2022/04/05 04:23:59;;;;;;;20.80;5.28;;;6.50;99.90;;;;;;5068013;28;20041;-74
2022/04/05 04:26:26;;;;;;;25.23;5.55;;;6.50;99.90;;;;;;5068992;28;20835;-74
2022/04/05 04:28:57;;;;;;;12.77;4.07;;;6.50;99.90;;;;;;5068033;28;20669;-74
2022/04/05 04:31:23;;;;;;;24.08;4.80;;;6.50;99.90;;;;;;5066275;28;20037;-74
2022/04/05 04:33:50;;;;;;;24.08;5.72;;;6.50;99.90;;;;;;5068795;28;20452;-74
2022/04/05 04:36:16;;;;;;;32.30;6.40;;;6.50;99.90;;;;;;5067107;28;20048;-74
2022/04/05 04:38:41;;;;;;;26.98;5.68;;;6.50;99.90;;;;;;5067259;28;20066;-74
2022/04/05 04:41:07;;;;;;;33.00;6.25;;;6.50;99.90;;;;;;5067019;28;20045;-74
2022/04/05 04:43:33;;;;;;;18.70;5.25;;;6.50;99.90;;;;;;5066463;28;20407;-74
2022/04/05 04:45:58;;;;;;;26.75;5.40;;;6.40;99.90;;;;;;5057411;28;20412;-73
2022/04/05 04:48:24;;;;;;;25.50;5.65;;;6.40;99.90;;;;;;5065863;28;20087;-73
2022/04/05 04:50:50;;;;;;;19.13;5.65;;;6.40;99.90;;;;;;5056146;28;20053;-74
2022/04/05 04:53:16;;;;;;;15.52;6.22;;;6.50;99.90;;;;;;5077799;28;20052;-74
2022/04/05 04:55:42;;;;;;;14.02;5.10;;;6.40;99.90;;;;;;5057287;28;20486;-74
2022/04/05 04:58:08;;;;;;;22.65;6.38;;;6.40;99.90;;;;;;5054337;28;20057;-74
2022/04/05 05:00:33;;;;;;;19.20;6.25;;;6.40;99.90;;;;;;5054684;28;20041;-74
2022/04/05 05:02:59;;;;;;;27.45;6.78;;;6.40;99.90;;;;;;5079539;28;20129;-74
2022/04/05 05:05:26;;;;;;;17.45;6.90;;;6.40;99.90;;;;;;5057461;28;20229;-73
2022/04/05 05:07:52;;;;;;;12.82;5.35;;;6.50;99.90;;;;;;5058431;28;20055;-74
2022/04/05 05:10:19;;;;;;;16.13;6.65;;;6.50;99.90;;;;;;5056753;28;20414;-73
2022/04/05 05:12:46;;;;;;;21.02;7.53;;;6.50;99.90;;;;;;5061466;28;20036;-73
2022/04/05 05:15:15;;;;;;;13.98;6.97;;;6.50;99.90;;;;;;5068289;28;20052;-73
2022/04/05 05:17:41;;;;;;;17.67;6.18;;;6.50;99.90;;;;;;5065194;28;20557;-74
2022/04/05 05:20:08;;;;;;;24.23;5.55;;;6.50;99.90;;;;;;5068058;28;20548;-74
2022/04/05 05:22:33;;;;;;;15.13;5.43;;;6.50;99.90;;;;;;5066839;28;20553;-73
2022/04/05 05:25:00;;;;;;;16.42;5.50;;;6.50;99.90;;;;;;5066557;28;20061;-74
2022/04/05 05:27:25;;;;;;;14.55;5.18;;;6.50;99.90;;;;;;5066502;28;20056;-73
2022/04/05 05:29:51;;;;;;;13.18;5.43;;;6.50;99.90;;;;;;5066838;28;20061;-74
2022/04/05 05:32:17;;;;;;;22.65;7.05;;;6.50;99.90;;;;;;5058418;28;20052;-73
2022/04/05 05:34:43;;;;;;;14.38;5.68;;;6.60;99.90;;;;;;5047559;28;20406;-74
2022/04/05 05:37:09;;;;;;;26.60;6.03;;;6.50;99.90;;;;;;5046320;28;20049;-74
2022/04/05 05:39:37;;;;;;;24.75;6.30;;;6.60;99.90;;;;;;5047265;28;20052;-74
2022/04/05 05:42:06;;;;;;;14.93;6.15;;;6.60;99.90;;;;;;5067052;28;20087;-73
2022/04/05 05:44:32;;;;;;;25.00;5.95;;;6.60;99.90;;;;;;5066879;28;20124;-73
2022/04/05 05:46:58;;;;;;;11.90;6.10;;;6.60;99.90;;;;;;5066261;28;20234;-74
2022/04/05 05:49:23;;;;;;;17.70;6.45;;;6.60;99.90;;;;;;5063476;28;20132;-74
2022/04/05 05:51:49;;;;;;;16.85;6.60;;;6.70;99.90;;;;;;5054142;28;20057;-73
2022/04/05 05:54:15;;;;;;;18.92;6.90;;;6.70;99.90;;;;;;5066947;28;20655;-74
2022/04/05 05:56:42;;;;;;;19.13;6.57;;;6.70;99.90;;;;;;5066335;28;20136;-74
2022/04/05 05:59:08;;;;;;;22.35;8.35;;;6.70;99.90;;;;;;5066103;28;20044;-74
2022/04/05 06:01:33;;;;;;;16.17;6.68;;;6.70;99.90;;;;;;5065834;28;20045;-74
2022/04/05 06:03:59;;;;;;;16.70;7.65;;;6.70;99.90;;;;;;5047999;28;20041;-74
2022/04/05 06:06:25;;;;;;;15.70;7.13;;;6.80;99.90;;;;;;5066247;28;20548;-74
2022/04/05 06:08:51;;;;;;;21.52;6.45;;;6.80;99.90;;;;;;5069651;28;20144;-74
2022/04/05 06:11:16;;;;;;;18.85;6.20;;;6.80;99.90;;;;;;5059976;28;20045;-73
2022/04/05 06:13:42;;;;;;;14.98;6.47;;;6.80;99.90;;;;;;5062480;28;20059;-74
2022/04/05 06:16:08;;;;;;;24.20;6.65;;;6.90;99.90;;;;;;5083117;28;20049;-74
2022/04/05 06:18:35;;;;;;;12.65;6.22;;;6.90;99.90;;;;;;5050336;28;20049;-73
2022/04/05 06:21:00;;;;;;;20.25;6.90;;;6.90;99.90;;;;;;5051025;28;20525;-74
2022/04/05 06:23:26;;;;;;;13.40;6.25;;;6.90;99.90;;;;;;5056567;28;20037;-74
2022/04/05 06:25:52;;;;;;;16.85;5.20;;;7.00;99.90;;;;;;5064993;28;20047;-75
2022/04/05 06:28:18;;;;;;;23.10;6.63;;;7.00;99.90;;;;;;5061237;28;20076;-74
2022/04/05 06:30:44;;;;;;;17.92;6.35;;;7.00;99.90;;;;;;5050956;28;20049;-74
2022/04/05 06:33:13;;;;;;;12.75;5.25;;;7.00;99.90;;;;;;5067962;28;20496;-74
2022/04/05 06:35:40;;;;;;;;;;;7.00;99.90;;;;;;5070246;28;20126;-76
2022/04/05 06:38:06;;;;;;;17.20;6.00;;;7.00;99.90;;;;;;5069359;28;20020;-75
2022/04/05 06:40:32;;;;;;;11.85;5.53;;;7.00;99.90;;;;;;5069041;28;20127;-74
2022/04/05 06:42:57;;;;;;;16.10;5.20;;;7.10;99.90;;;;;;5069995;28;20041;-74
2022/04/05 06:45:24;;;;;;;18.13;5.97;;;7.10;99.90;;;;;;5069076;28;20045;-73
2022/04/05 06:47:50;;;;;;;18.30;5.72;;;7.10;99.90;;;;;;5065669;28;20043;-74
2022/04/05 06:50:20;;;;;;;13.32;4.65;;;7.20;99.90;;;;;;5068850;28;20052;-76
2022/04/05 06:52:47;;;;;;;25.70;5.47;;;7.20;99.90;;;;;;5068265;28;20078;-75
2022/04/05 06:55:13;;;;;;;12.07;4.78;;;7.30;99.90;;;;;;5068797;28;20052;-76
2022/04/05 06:57:39;;;;;;;9.07;4.72;;;7.30;99.90;;;;;;5067673;28;20076;-74
2022/04/05 07:00:07;;;;;;;10.82;5.38;;;7.30;99.90;;;;;;5069425;28;20056;-73
2022/04/05 07:02:33;;;;;;;12.35;5.15;;;7.30;99.90;;;;;;5054484;28;20044;-74
2022/04/05 07:04:59;;;;;;;9.32;4.85;;;7.30;99.90;;;;;;5069276;28;20394;-74
2022/04/05 07:07:25;;;;;;;12.75;5.18;;;7.30;99.90;;;;;;5068201;28;20053;-74
2022/04/05 07:09:51;;;;;;;13.38;4.57;;;7.40;99.90;;;;;;5066150;28;20047;-73
2022/04/05 07:12:17;;;;;;;11.27;4.35;;;7.40;99.90;;;;;;5053374;28;20052;-75
2022/04/05 07:14:43;;;;;;;13.65;4.47;;;7.50;99.90;;;;;;5066321;28;20444;-74
2022/04/05 07:17:09;;;;;;;9.07;4.70;;;7.50;99.90;;;;;;5064015;28;20040;-73
2022/04/05 07:19:34;;;;;;;10.85;4.78;;;7.50;99.90;;;;;;5068870;28;20044;-71
2022/04/05 07:22:01;;;;;;;8.05;4.00;;;7.60;99.90;;;;;;5068931;28;20056;-74
2022/04/05 07:24:27;;;;;;;16.15;4.75;;;7.60;99.90;;;;;;5069184;28;20048;-73
2022/04/05 07:26:54;;;;;;;7.03;3.30;;;7.60;99.90;;;;;;5068642;28;20044;-74
2022/04/05 07:29:20;;;;;;;12.60;4.32;;;7.60;99.90;;;;;;5075169;28;20405;-74
2022/04/05 07:31:45;;;;;;;15.93;3.92;;;7.60;99.90;;;;;;5074839;28;20127;-73
2022/04/05 07:34:11;;;;;;;11.57;4.60;;;7.70;99.90;;;;;;5065634;28;20055;-74
2022/04/05 07:36:37;;;;;;;11.00;4.03;;;7.70;99.90;;;;;;5067081;28;20516;-74
2022/04/05 07:39:03;;;;;;;13.43;3.53;;;7.70;99.90;;;;;;5068247;28;20048;-74
2022/04/05 07:41:29;;;;;;;6.28;3.53;;;7.70;99.90;;;;;;5068009;28;20550;-73
2022/04/05 07:43:54;;;;;;;8.07;3.50;;;7.70;99.90;;;;;;5063272;28;20045;-74
2022/04/05 07:46:22;;;;;;;8.43;3.75;;;7.70;99.90;;;;;;5048683;28;20106;-74
2022/04/05 07:48:51;;;;;;;8.15;3.75;;;7.80;99.90;;;;;;5051499;28;20060;-73
2022/04/05 07:51:17;;;;;;;8.68;3.63;;;7.80;99.90;;;;;;5054614;28;20045;-74
2022/04/05 07:53:44;;;;;;;7.07;3.65;;;7.90;99.90;;;;;;5068001;28;20707;-74
2022/04/05 07:56:12;;;;;;;8.32;3.20;;;7.90;99.90;;;;;;5067699;28;20053;-73
2022/04/05 07:58:39;;;;;;;13.25;3.65;;;7.90;99.90;;;;;;5067259;28;20105;-73
2022/04/05 08:01:05;;;;;;;9.32;3.42;;;7.90;99.90;;;;;;5067347;28;20082;-74
2022/04/05 08:03:30;;;;;;;4.93;2.65;;;7.90;99.90;;;;;;5064303;28;20128;-74
2022/04/05 08:05:56;;;;;;;10.27;3.47;;;8.00;99.90;;;;;;5051523;28;20051;-74
2022/04/05 08:08:22;;;;;;;11.35;4.03;;;8.00;99.90;;;;;;5067972;28;20059;-74
2022/04/05 08:10:48;;;;;;;9.27;3.92;;;8.10;99.90;;;;;;5068536;28;20139;-74
2022/04/05 08:13:13;;;;;;;7.65;3.38;;;8.10;99.90;;;;;;5067423;28;20044;-73
2022/04/05 08:15:43;;;;;;;17.73;3.95;;;8.10;99.90;;;;;;5066019;28;20048;-73
2022/04/05 08:18:11;;;;;;;6.05;3.03;;;8.20;99.90;;;;;;5066861;28;20080;-74
2022/04/05 08:20:39;;;;;;;;;;;8.10;99.90;;;;;;5068136;28;20056;-73
2022/04/05 08:23:06;;;;;;;12.45;3.53;;;8.10;99.90;;;;;;5067799;28;20373;-74
2022/04/05 08:25:31;;;;;;;13.70;3.35;;;8.10;99.90;;;;;;5065739;28;20098;-73
2022/04/05 08:27:57;;;;;;;7.05;2.80;;;8.20;99.90;;;;;;5040843;28;20060;-74
2022/04/05 08:30:23;;;;;;;6.97;2.83;;;8.20;99.90;;;;;;5051882;28;20049;-73
2022/04/05 08:32:49;;;;;;;7.15;2.63;;;8.20;99.90;;;;;;5056975;28;20036;-74
2022/04/05 08:35:17;;;;;;;11.23;2.90;;;8.30;99.90;;;;;;5058261;28;20124;-73
2022/04/05 08:37:45;;;;;;;9.40;2.58;;;8.30;99.90;;;;;;5067522;28;20052;-73
2022/04/05 08:40:12;;;;;;;9.70;3.80;;;8.30;99.90;;;;;;5060560;28;20509;-73
2022/04/05 08:42:41;;;;;;;7.45;2.78;;;8.40;99.90;;;;;;5050685;28;20498;-73
2022/04/05 08:45:10;;;;;;;8.50;2.58;;;8.50;99.90;;;;;;5063076;28;20079;-75
2022/04/05 08:47:37;;;;;;;;;;;8.50;99.90;;;;;;5063993;28;20090;-73
2022/04/05 08:50:05;;;;;;;8.48;2.75;;;8.50;99.90;;;;;;5065671;28;19920;-73
2022/04/05 08:52:31;;;;;;;7.10;2.70;;;8.50;99.90;;;;;;5050764;28;20083;-73
2022/04/05 08:54:56;;;;;;;6.50;2.55;;;8.50;99.90;;;;;;5051871;28;20482;-74
2022/04/05 08:57:22;;;;;;;7.95;3.38;;;8.50;99.90;;;;;;5057095;28;20423;-73
2022/04/05 08:59:49;;;;;;;7.95;2.13;;;8.50;99.90;;;;;;5068140;28;20135;-73
2022/04/05 09:02:24;;;;;;;8.45;2.95;;;8.60;99.90;;;;;;5046214;28;20172;-76
2022/04/05 09:04:52;;;;;;;4.88;2.30;;;8.60;99.90;;;;;;5066531;28;20118;-74
2022/04/05 09:07:26;;;;;;;8.05;3.15;;;8.70;99.90;;;;;;5068243;28;20388;-74
2022/04/05 09:10:14;;;;;;;9.10;2.47;;;8.80;99.90;;;;;;5068079;28;20155;-74
2022/04/05 09:12:46;;;;;;;8.30;2.90;;;8.90;99.90;;;;;;5066100;28;20062;-74
2022/04/05 09:15:21;;;;;;;6.65;2.53;;;8.90;99.90;;;;;;5064564;28;20393;-73
2022/04/05 09:17:49;;;;;;;7.20;2.17;;;9.10;99.90;;;;;;5064346;28;20045;-73
2022/04/05 09:20:17;;;;;;;4.57;1.80;;;9.10;99.90;;;;;;5066866;28;20044;-74
2022/04/05 09:22:46;;;;;;;3.53;2.88;;;9.10;99.90;;;;;;5067249;28;20087;-73
2022/04/05 09:25:16;;;;;;;6.63;2.42;;;9.10;99.90;;;;;;5054156;28;20402;-73
2022/04/05 09:27:48;;;;;;;6.00;2.83;;;9.10;99.90;;;;;;5056216;28;20405;-73
2022/04/05 09:30:19;;;;;;;3.58;1.95;;;9.20;99.90;;;;;;5066043;28;20044;-73
2022/04/05 09:32:48;;;;;;;3.65;2.38;;;9.20;99.90;;;;;;5053817;28;20066;-72
2022/04/05 09:35:26;;;;;;;3.95;2.75;;;9.20;99.90;;;;;;5047978;28;20041;-74
2022/04/05 09:37:52;;;;;;;6.38;3.05;;;9.30;99.90;;;;;;5045825;28;20057;-74
2022/04/05 09:40:31;;;;;;;5.72;2.78;;;9.40;99.90;;;;;;5052814;28;20044;-74
2022/04/05 09:43:00;;;;;;;10.30;3.42;;;9.60;99.90;;;;;;5071109;28;20048;-74
2022/04/05 09:45:46;;;;;;;3.45;2.63;;;9.60;99.90;;;;;;5069877;28;20413;-74
2022/04/05 09:48:15;;;;;;;6.60;2.50;;;9.70;99.90;;;;;;5072107;28;20360;-75
2022/04/05 09:51:04;;;;;;;;;;;9.60;99.90;;;;;;5069293;28;20131;-74
2022/04/05 09:53:38;;;;;;;3.47;2.67;;;9.60;99.90;;;;;;5068747;28;19927;-74
2022/04/05 09:56:16;;;;;;;5.20;2.50;;;9.60;99.90;;;;;;5070635;28;20052;-73
2022/04/05 09:59:18;;;;;;;5.55;2.08;;;9.70;99.90;;;;;;5066138;28;20080;-74
2022/04/05 10:01:49;;;;;;;2.15;1.95;;;9.70;99.90;;;;;;5056040;28;20052;-76
2022/04/05 10:04:16;;;;;;;3.28;2.00;;;9.60;99.90;;;;;;5071799;28;20044;-75
2022/04/05 10:06:44;;;;;;;6.47;2.00;;;9.60;99.90;;;;;;5067309;28;20493;-74
2022/04/05 10:09:15;;;;;;;2.97;2.13;;;9.70;99.90;;;;;;5082687;28;20326;-75
2022/04/05 10:11:42;;;;;;;3.60;1.70;;;9.70;99.90;;;;;;5050678;28;20049;-75
2022/04/05 10:14:10;;;;;;;2.58;2.15;;;9.70;99.90;;;;;;5058989;28;20070;-75
2022/04/05 10:16:36;;;;;;;;;;;9.70;99.90;;;;;;5070004;28;20055;-75
2022/04/05 10:19:04;;;;;;;2.33;1.50;;;9.70;99.90;;;;;;5071000;28;19921;-75
2022/04/05 10:21:34;;;;;;;2.47;1.92;;;9.80;99.90;;;;;;5053522;28;20044;-75
2022/04/05 10:24:01;;;;;;;5.15;1.75;;;9.80;99.90;;;;;;5069138;28;20080;-75
2022/04/05 10:26:31;;;;;;;1.75;1.30;;;9.70;99.90;;;;;;5069007;28;20048;-75
2022/04/05 10:28:59;;;;;;;2.03;1.88;;;9.80;99.90;;;;;;5071289;28;20049;-75
2022/04/05 10:31:36;;;;;;;3.40;1.75;;;9.70;99.90;;;;;;5071563;28;20125;-75
2022/04/05 10:34:11;;;;;;;2.60;1.98;;;9.70;99.90;;;;;;5065183;28;20433;-75
2022/04/05 10:36:37;;;;;;;2.88;1.85;;;9.70;99.90;;;;;;5065586;28;20453;-74
2022/04/05 10:39:13;;;;;;;1.73;1.63;;;9.70;99.90;;;;;;5068655;28;20128;-76
2022/04/05 10:41:39;;;;;;;3.65;2.30;;;9.70;99.90;;;;;;5068881;28;20072;-76
2022/04/05 10:44:18;;;;;;;2.45;2.25;;;9.70;99.90;;;;;;5068559;28;20068;-77
2022/04/05 10:46:53;;;;;;;2.45;1.90;;;9.70;99.90;;;;;;5069471;28;20052;-75
2022/04/05 10:49:37;;;;;;;5.75;2.47;;;9.70;99.90;;;;;;5069170;28;20052;-76
2022/04/05 10:52:11;;;;;;;3.00;2.65;;;9.80;99.90;;;;;;5068379;28;20197;-75
2022/04/05 10:54:49;;;;;;;2.40;2.20;;;9.90;99.90;;;;;;5069381;28;20083;-75
2022/04/05 10:57:29;;;;;;;3.15;2.78;;;9.90;99.90;;;;;;5069231;28;20088;-75
2022/04/05 10:59:58;;;;;;;3.38;3.03;;;10.00;99.90;;;;;;5066877;28;20060;-74
2022/04/05 11:02:32;;;;;;;4.43;2.97;;;10.00;99.90;;;;;;5052743;28;20098;-76
2022/04/05 11:05:24;;;;;;;5.10;3.17;;;10.00;99.90;;;;;;5059221;28;20044;-75
2022/04/05 11:07:59;;;;;;;3.90;3.50;;;10.00;99.90;;;;;;5069089;28;20497;-75
2022/04/05 11:10:48;;;;;;;5.22;3.53;;;10.00;99.90;;;;;;5068334;28;20044;-76
2022/04/05 11:13:19;;;;;;;6.82;3.60;;;10.00;99.90;;;;;;5066421;28;20087;-76
2022/04/05 11:15:53;;;;;;;4.75;3.88;;;10.00;99.90;;;;;;5059657;28;20764;-75
2022/04/05 11:18:36;;;;;;;4.22;3.55;;;10.00;99.90;;;;;;5067217;28;20057;-74
2022/04/05 11:21:06;;;;;;;4.28;3.28;;;10.00;99.90;;;;;;5060216;28;20086;-75
2022/04/05 11:23:52;;;;;;;5.38;4.28;;;10.10;99.90;;;;;;5059180;28;20566;-74
2022/04/05 11:26:31;;;;;;;5.03;4.13;;;10.20;99.90;;;;;;5059888;28;20048;-75
2022/04/05 11:28:58;;;;;;;5.18;4.55;;;10.50;99.90;;;;;;5057319;28;20115;-75
2022/04/05 11:31:40;;;;;;;3.88;3.47;;;10.60;99.90;;;;;;5061057;28;20049;-75
2022/04/05 11:34:37;;;;;;;4.45;3.30;;;10.70;99.90;;;;;;5063558;28;20052;-78
2022/04/05 11:37:04;;;;;;;;;;;10.90;99.90;;;;;;5061850;28;20054;-76
2022/04/05 11:39:34;;;;;;;3.40;2.70;;;11.10;99.90;;;;;;5070002;28;20604;-77
2022/04/05 11:42:01;;;;;;;3.47;3.08;;;11.10;99.90;;;;;;5045021;28;20486;-77
2022/04/05 11:44:27;;;;;;;4.00;3.45;;;11.30;99.90;;;;;;5068270;28;20080;-73
2022/04/05 11:46:56;;;;;;;2.88;2.60;;;11.30;99.90;;;;;;5068129;28;20055;-72
2022/04/05 11:49:22;;;;;;;4.60;3.00;;;11.40;99.90;;;;;;5068181;28;20139;-71
2022/04/05 11:51:48;;;;;;;5.20;3.63;;;11.50;99.90;;;;;;5049702;28;20127;-71
2022/04/05 11:54:18;;;;;;;3.45;2.97;;;11.50;99.90;;;;;;5069229;28;20057;-71
2022/04/05 11:56:45;;;;;;;3.22;2.92;;;11.40;99.90;;;;;;5068058;28;20052;-72
2022/04/05 11:59:16;;;;;;;4.35;3.10;;;11.40;99.90;;;;;;5068675;28;20136;-71
2022/04/05 12:01:43;;;;;;;4.93;3.58;;;11.50;99.90;;;;;;5068084;28;20501;-71
2022/04/05 12:04:14;;;;;;;6.17;3.07;;;11.40;99.90;;;;;;5067739;28;20036;-71
2022/04/05 12:06:44;;;;;;;3.35;3.05;;;11.40;99.90;;;;;;5067834;28;20063;-73
2022/04/05 12:09:11;;;;;;;4.53;3.40;;;11.20;99.90;;;;;;5069427;28;20505;-71
2022/04/05 12:11:39;;;;;;;3.07;2.73;;;11.30;99.90;;;;;;5068566;28;20052;-71
2022/04/05 12:14:11;;;;;;;5.10;3.28;;;11.20;99.90;;;;;;5075266;28;20943;-71
2022/04/05 12:16:51;;;;;;;6.90;3.60;;;11.10;99.90;;;;;;5069798;28;20055;-71
2022/04/05 12:19:49;;;;;;;3.85;3.22;;;11.30;99.90;;;;;;5066102;28;20051;-71
2022/04/05 12:22:16;;;;;;;;;;;11.30;99.90;;;;;;5067968;28;20052;-71
2022/04/05 12:24:50;;;;;;;3.58;3.22;;;11.20;99.90;;;;;;5068507;28;20571;-72
2022/04/05 12:27:18;;;;;;;4.93;3.17;;;11.30;99.90;;;;;;5067104;28;20044;-71
2022/04/05 12:29:43;;;;;;;3.97;3.35;;;11.50;99.90;;;;;;5066739;28;20048;-71
2022/04/05 12:32:13;;;;;;;6.50;4.60;;;11.50;99.90;;;;;;5067519;28;20040;-71
2022/04/05 12:34:40;;;;;;;3.45;3.15;;;11.50;99.90;;;;;;5067563;28;20131;-71
2022/04/05 12:37:12;;;;;;;3.90;3.50;;;11.50;99.90;;;;;;5067586;28;20417;-71
2022/04/05 12:39:50;;;;;;;5.00;4.50;;;11.60;99.90;;;;;;5050035;28;20041;-71
2022/04/05 12:42:17;;;;;;;;;;;11.60;99.90;;;;;;5067374;28;20053;-72
2022/04/05 12:44:45;;;;;;;4.07;3.67;;;11.50;99.90;;;;;;5056408;28;19927;-72
2022/04/05 12:47:16;;;;;;;4.95;3.95;;;11.40;99.90;;;;;;5048388;28;20453;-72
2022/04/05 12:49:44;;;;;;;4.63;3.90;;;11.40;99.90;;;;;;5050442;28;20124;-72
2022/04/05 12:52:18;;;;;;;4.45;4.05;;;11.40;99.90;;;;;;5068346;28;20075;-72
2022/04/05 12:54:52;;;;;;;8.43;5.95;;;11.40;99.90;;;;;;5066725;28;20071;-72
2022/04/05 12:57:31;;;;;;;5.03;4.50;;;11.30;99.90;;;;;;5065667;28;20057;-72